Time;durP1;ratioP1;P1;durP2;ratioP2;P2;SDS_P1;SDS_P2;PMS_P1;PMS_P2;Temp;Humidity;BMP_temperature;BMP_pressure;BME280_temperature;BME280_humidity;BME280_pressure;Samples;Min_cycle;Max_cycle;Signal;HPM_P1;HPM_P2
2023/12/28 00:02:17;;;;;;;44.30;24.17;;;;;;;4.38;100.00;101348.06;1454954;89;21399;-77
2023/12/28 00:04:45;;;;;;;42.63;22.97;;;;;;;4.39;100.00;101344.50;1460876;89;21547;-78
2023/12/28 00:07:13;;;;;;;39.10;19.10;;;;;;;4.39;100.00;101345.80;1450554;89;21379;-79
2023/12/28 00:09:40;;;;;;;33.13;18.40;;;;;;;4.37;100.00;101335.86;1458679;89;21399;-78
2023/12/28 00:12:08;;;;;;;34.37;16.90;;;;;;;4.36;100.00;101335.97;1457536;89;22316;-78
2023/12/28 00:14:35;;;;;;;38.73;18.37;;;;;;;4.38;100.00;101342.81;1433220;89;22384;-79
2023/12/28 00:17:02;;;;;;;36.27;17.43;;;;;;;4.40;100.00;101346.64;1463286;88;21430;-79
2023/12/28 00:19:29;;;;;;;26.10;13.40;;;;;;;4.39;100.00;101356.29;1452681;89;21489;-78
2023/12/28 00:21:57;;;;;;;34.97;18.10;;;;;;;4.36;100.00;101355.15;1452323;89;21378;-78
2023/12/28 00:24:24;;;;;;;34.53;17.90;;;;;;;4.37;100.00;101366.00;1457481;89;21448;-78
2023/12/28 00:26:51;;;;;;;21.80;12.00;;;;;;;4.39;100.00;101360.22;1455119;89;21290;-78
2023/12/28 00:29:20;;;;;;;19.23;10.40;;;;;;;4.43;100.00;101356.52;1442749;89;21441;-78
2023/12/28 00:31:47;;;;;;;22.17;10.93;;;;;;;4.46;100.00;101348.92;1468147;89;21534;-78
2023/12/28 00:34:14;;;;;;;21.30;11.93;;;;;;;4.46;100.00;101345.86;1458575;89;21327;-78
2023/12/28 00:36:41;;;;;;;19.23;11.27;;;;;;;4.48;100.00;101342.66;1463524;89;21564;-79
2023/12/28 00:39:08;;;;;;;18.53;10.30;;;;;;;4.48;100.00;101343.98;1457784;89;21451;-79
2023/12/28 00:41:36;;;;;;;21.93;11.43;;;;;;;4.50;100.00;101344.74;1463034;89;21504;-78
2023/12/28 00:44:05;;;;;;;22.97;11.57;;;;;;;4.51;100.00;101355.59;1462636;89;21400;-78
2023/12/28 00:46:32;;;;;;;23.97;12.30;;;;;;;4.53;100.00;101356.37;1455722;89;22235;-77
2023/12/28 00:48:59;;;;;;;23.67;12.00;;;;;;;4.56;100.00;101361.06;1446176;89;21543;-78
2023/12/28 00:51:26;;;;;;;22.07;12.43;;;;;;;4.56;100.00;101355.83;1453944;89;21363;-78
2023/12/28 00:53:53;;;;;;;19.93;13.23;;;;;;;4.57;100.00;101358.34;1454870;89;21392;-78
2023/12/28 00:56:21;;;;;;;23.60;10.97;;;;;;;4.59;100.00;101366.98;1460055;89;22791;-77
2023/12/28 00:58:48;;;;;;;18.80;11.93;;;;;;;4.59;100.00;101353.87;1457308;89;21629;-76
2023/12/28 01:01:15;;;;;;;20.57;11.33;;;;;;;4.61;100.00;101357.73;1456363;89;21583;-77
2023/12/28 01:03:43;;;;;;;33.73;13.93;;;;;;;4.63;100.00;101354.53;1455899;89;21393;-76
2023/12/28 01:06:10;;;;;;;19.10;11.10;;;;;;;4.63;100.00;101349.29;1450925;89;21607;-76
2023/12/28 01:08:37;;;;;;;19.13;11.70;;;;;;;4.62;100.00;101352.37;1457668;89;21474;-77
2023/12/28 01:11:04;;;;;;;20.43;11.57;;;;;;;4.61;100.00;101352.48;1442500;89;21377;-77
2023/12/28 01:13:32;;;;;;;21.53;11.47;;;;;;;4.63;100.00;101351.91;1450476;89;21506;-76
2023/12/28 01:15:59;;;;;;;24.83;11.57;;;;;;;4.66;100.00;101355.67;1455606;89;22108;-77
2023/12/28 01:18:26;;;;;;;20.37;12.67;;;;;;;4.69;100.00;101352.87;1458874;89;22324;-76
2023/12/28 01:20:53;;;;;;;24.03;10.67;;;;;;;4.72;100.00;101356.66;1440217;89;21370;-77
2023/12/28 01:23:20;;;;;;;23.73;13.07;;;;;;;4.73;100.00;101360.96;1459875;89;21408;-77
2023/12/28 01:25:47;;;;;;;19.50;11.80;;;;;;;4.76;100.00;101359.47;1444855;89;21542;-77
2023/12/28 01:28:14;;;;;;;23.37;11.77;;;;;;;4.75;100.00;101361.73;1452419;89;21326;-77
2023/12/28 01:30:43;;;;;;;24.30;13.03;;;;;;;4.77;100.00;101362.46;1452662;89;21326;-78
2023/12/28 01:33:11;;;;;;;17.17;11.57;;;;;;;4.80;100.00;101360.13;1456369;89;21506;-77
2023/12/28 01:35:38;;;;;;;17.80;10.70;;;;;;;4.81;100.00;101361.38;1452572;89;21385;-78
2023/12/28 01:38:05;;;;;;;15.97;10.27;;;;;;;4.84;100.00;101361.20;1451579;89;21296;-78
2023/12/28 01:40:32;;;;;;;15.63;10.23;;;;;;;4.86;100.00;101367.65;1445391;89;22197;-77
2023/12/28 01:43:00;;;;;;;15.87;9.87;;;;;;;4.90;100.00;101358.22;1459657;89;21413;-77
2023/12/28 01:45:27;;;;;;;16.97;9.87;;;;;;;4.92;100.00;101351.11;1457931;89;21473;-78
2023/12/28 01:47:56;;;;;;;16.17;9.57;;;;;;;4.94;100.00;101348.38;1456212;89;22412;-78
2023/12/28 01:50:26;;;;;;;17.97;9.47;;;;;;;4.95;100.00;101343.06;1449781;89;21399;-80
2023/12/28 01:52:56;;;;;;;17.93;9.53;;;;;;;4.93;100.00;101341.45;1453700;89;21436;-79
2023/12/28 01:55:25;;;;;;;17.20;11.12;;;;;;;4.91;100.00;101342.84;1454286;89;21499;-79
2023/12/28 01:57:53;;;;;;;17.53;10.33;;;;;;;4.91;100.00;101340.69;1451680;89;21936;-79
2023/12/28 02:00:22;;;;;;;22.20;10.23;;;;;;;4.91;100.00;101332.34;1456119;89;22509;-80
2023/12/28 02:02:51;;;;;;;13.47;9.43;;;;;;;4.91;100.00;101336.28;1455423;89;21421;-79
2023/12/28 02:05:19;;;;;;;19.00;9.83;;;;;;;4.90;100.00;101333.30;1454054;89;21268;-79
2023/12/28 02:07:46;;;;;;;17.30;9.67;;;;;;;4.91;100.00;101323.17;1460695;89;22288;-78
2023/12/28 02:10:14;;;;;;;16.63;8.80;;;;;;;4.93;100.00;101318.69;1449623;89;21504;-78
2023/12/28 02:12:41;;;;;;;19.07;9.17;;;;;;;4.96;100.00;101321.60;1453057;89;22323;-77
2023/12/28 02:15:09;;;;;;;17.53;9.33;;;;;;;4.96;100.00;101321.13;1456224;89;21415;-79
2023/12/28 02:17:57;;;;;;;15.10;10.03;;;;;;;4.97;100.00;101329.36;1459960;89;21422;-78
2023/12/28 02:20:28;;;;;;;16.33;9.63;;;;;;;4.99;100.00;101322.73;1448850;89;22420;-78
2023/12/28 02:22:56;;;;;;;;;;;;;;;5.03;100.00;101321.61;1451832;89;21578;-78
2023/12/28 02:25:23;;;;;;;16.40;9.83;;;;;;;5.03;100.00;101319.45;1442756;89;20297;-78
2023/12/28 02:27:51;;;;;;;13.67;8.37;;;;;;;5.06;100.00;101317.96;1437524;89;22309;-79
2023/12/28 02:30:22;;;;;;;15.20;9.93;;;;;;;5.10;100.00;101316.86;1452856;89;21378;-77
2023/12/28 02:33:07;;;;;;;13.60;8.80;;;;;;;5.10;100.00;101311.61;1461210;89;21356;-77
2023/12/28 02:35:56;;;;;;;16.90;8.97;;;;;;;5.13;100.00;101312.27;1455599;89;22315;-78
2023/12/28 02:38:25;;;;;;;17.93;8.17;;;;;;;5.16;100.00;101309.94;1455860;89;21378;-78
2023/12/28 02:40:54;;;;;;;13.70;8.30;;;;;;;5.18;100.00;101303.66;1450576;89;22428;-78
2023/12/28 02:43:22;;;;;;;18.20;8.87;;;;;;;5.21;100.00;101301.33;1452386;89;21393;-78
2023/12/28 02:45:49;;;;;;;13.53;8.13;;;;;;;5.23;100.00;101299.43;1450542;89;21392;-78
2023/12/28 02:48:16;;;;;;;16.73;7.93;;;;;;;5.25;100.00;101293.63;1449350;89;21636;-77
2023/12/28 02:50:44;;;;;;;17.23;9.30;;;;;;;5.26;100.00;101291.37;1440214;89;21585;-79
2023/12/28 02:53:13;;;;;;;15.67;8.23;;;;;;;5.30;100.00;101298.14;1449838;89;21385;-77
2023/12/28 02:55:40;;;;;;;14.13;8.33;;;;;;;5.31;100.00;101298.98;1455372;89;21473;-78
2023/12/28 02:58:07;;;;;;;17.57;9.83;;;;;;;5.33;100.00;101300.58;1458039;89;21296;-77
2023/12/28 03:00:35;;;;;;;24.37;9.90;;;;;;;5.34;100.00;101291.76;1459365;89;22331;-77
2023/12/28 03:03:02;;;;;;;17.57;9.47;;;;;;;5.35;100.00;101292.16;1446066;89;21371;-77
2023/12/28 03:05:29;;;;;;;14.03;8.53;;;;;;;5.35;100.00;101285.59;1458717;89;21363;-78
2023/12/28 03:07:58;;;;;;;26.07;8.13;;;;;;;5.37;100.00;101277.61;1446727;89;21303;-78
2023/12/28 03:10:25;;;;;;;13.20;7.20;;;;;;;5.38;100.00;101277.53;1460894;89;21400;-78
2023/12/28 03:12:52;;;;;;;13.10;7.60;;;;;;;5.39;100.00;101272.64;1462407;89;22280;-78
2023/12/28 03:15:19;;;;;;;13.87;7.50;;;;;;;5.38;100.00;101269.66;1451513;89;21414;-78
2023/12/28 03:17:46;;;;;;;16.67;7.20;;;;;;;5.39;100.00;101268.70;1455951;89;23045;-77
2023/12/28 03:20:15;;;;;;;12.23;6.80;;;;;;;5.40;100.00;101265.13;1460154;89;21304;-77
2023/12/28 03:22:42;;;;;;;16.53;9.00;;;;;;;5.40;100.00;101261.19;1457846;89;21437;-77
2023/12/28 03:25:09;;;;;;;16.17;8.37;;;;;;;5.43;100.00;101259.69;1450756;89;21363;-77
2023/12/28 03:27:36;;;;;;;13.63;7.33;;;;;;;5.45;100.00;101262.23;1456126;89;22199;-78
2023/12/28 03:30:05;;;;;;;10.67;6.93;;;;;;;5.46;100.00;101265.70;1448767;89;21407;-78
2023/12/28 03:32:32;;;;;;;12.47;6.37;;;;;;;5.46;100.00;101270.48;1458086;89;21356;-77
2023/12/28 03:35:00;;;;;;;13.23;7.60;;;;;;;5.48;100.00;101263.36;1452509;89;21384;-77
2023/12/28 03:37:28;;;;;;;13.63;7.67;;;;;;;5.50;100.00;101264.11;1458009;89;21445;-77
2023/12/28 03:39:56;;;;;;;12.00;7.03;;;;;;;5.50;100.00;101257.55;1453303;89;21311;-77
2023/12/28 03:42:23;;;;;;;15.40;6.70;;;;;;;5.52;100.00;101260.06;1441465;89;21549;-77
2023/12/28 03:44:50;;;;;;;23.30;8.17;;;;;;;5.51;100.00;101254.45;1448625;89;21540;-79
2023/12/28 03:47:17;;;;;;;16.47;8.13;;;;;;;5.54;100.00;101255.57;1449416;89;21437;-79
2023/12/28 03:49:44;;;;;;;13.87;7.47;;;;;;;5.55;100.00;101249.38;1460521;89;21325;-78
2023/12/28 03:52:12;;;;;;;10.27;6.00;;;;;;;5.57;100.00;101248.81;1453511;89;22309;-78
2023/12/28 03:54:39;;;;;;;13.47;7.30;;;;;;;5.59;100.00;101239.91;1458015;89;21584;-79
2023/12/28 03:57:06;;;;;;;12.53;5.93;;;;;;;5.63;100.00;101242.70;1452912;89;21370;-80
2023/12/28 03:59:34;;;;;;;13.53;6.80;;;;;;;5.64;100.00;101239.63;1455077;89;21467;-78
2023/12/28 04:02:01;;;;;;;15.03;7.47;;;;;;;5.67;100.00;101235.50;1460086;89;21591;-79
2023/12/28 04:04:28;;;;;;;11.67;5.63;;;;;;;5.71;100.00;101235.67;1456827;89;21430;-79
2023/12/28 04:06:55;;;;;;;11.03;6.50;;;;;;;5.74;100.00;101236.78;1451132;89;21332;-79
2023/12/28 04:09:23;;;;;;;9.67;5.63;;;;;;;5.78;100.00;101235.67;1452666;89;21356;-79
2023/12/28 04:11:50;;;;;;;11.67;6.10;;;;;;;5.81;100.00;101236.78;1447754;89;21959;-79
2023/12/28 04:14:17;;;;;;;10.83;6.87;;;;;;;5.84;100.00;101230.02;1453593;89;21407;-78
2023/12/28 04:16:44;;;;;;;13.37;6.07;;;;;;;5.88;100.00;101231.50;1453797;89;21495;-78
2023/12/28 04:19:12;;;;;;;14.10;8.50;;;;;;;5.94;100.00;101232.09;1459635;89;21370;-78
2023/12/28 04:21:39;;;;;;;9.83;6.80;;;;;;;5.97;100.00;101230.10;1453566;89;21392;-78
2023/12/28 04:24:06;;;;;;;14.73;6.87;;;;;;;6.00;100.00;101227.75;1462353;89;21363;-79
2023/12/28 04:26:33;;;;;;;14.30;7.60;;;;;;;6.04;100.00;101222.66;1459492;89;21503;-78
2023/12/28 04:29:00;;;;;;;17.33;7.23;;;;;;;6.06;100.00;101214.21;1453343;89;21318;-78
2023/12/28 04:31:28;;;;;;;11.90;5.83;;;;;;;6.08;100.00;101212.34;1455598;89;21444;-78
2023/12/28 04:33:55;;;;;;;13.00;6.67;;;;;;;6.09;100.00;101206.13;1449189;89;22266;-78
2023/12/28 04:36:22;;;;;;;13.27;5.77;;;;;;;6.07;100.00;101207.55;1454564;89;21348;-79
2023/12/28 04:38:49;;;;;;;13.20;7.00;;;;;;;6.08;100.00;101216.28;1441865;89;21477;-79
2023/12/28 04:41:16;;;;;;;10.10;5.83;;;;;;;6.06;100.00;101223.41;1454635;89;22978;-79
2023/12/28 04:43:43;;;;;;;8.43;5.70;;;;;;;6.06;100.00;101218.98;1453892;89;21429;-79
2023/12/28 04:46:10;;;;;;;11.33;6.50;;;;;;;6.07;100.00;101214.13;1452288;89;21333;-80
2023/12/28 04:48:37;;;;;;;12.80;7.40;;;;;;;6.11;100.00;101221.34;1459697;89;21318;-79
2023/12/28 04:51:05;;;;;;;14.60;7.73;;;;;;;6.13;100.00;101219.45;1457321;89;21289;-80
2023/12/28 04:53:33;;;;;;;13.33;7.90;;;;;;;6.15;100.00;101222.81;1452010;89;22353;-79
2023/12/28 04:56:00;;;;;;;14.87;7.70;;;;;;;6.17;100.00;101224.88;1451866;89;21422;-79
2023/12/28 04:58:28;;;;;;;12.00;7.23;;;;;;;6.21;100.00;101221.56;1459485;89;21429;-79
2023/12/28 05:00:55;;;;;;;14.50;7.17;;;;;;;6.21;100.00;101219.78;1438402;89;22326;-79
2023/12/28 05:03:22;;;;;;;13.33;6.77;;;;;;;6.23;100.00;101217.90;1453453;89;22016;-79
2023/12/28 05:05:49;;;;;;;11.93;6.83;;;;;;;6.23;100.00;101212.64;1455370;89;21451;-78
2023/12/28 05:08:16;;;;;;;12.47;6.37;;;;;;;6.26;100.00;101217.70;1451898;89;21467;-78
2023/12/28 05:10:44;;;;;;;9.47;6.60;;;;;;;6.28;100.00;101221.08;1455010;89;21385;-78
2023/12/28 05:13:11;;;;;;;12.37;6.20;;;;;;;6.29;100.00;101219.28;1459453;89;21521;-77
2023/12/28 05:15:38;;;;;;;13.03;6.10;;;;;;;6.27;100.00;101215.45;1459010;89;21407;-79
2023/12/28 05:18:07;;;;;;;13.30;7.30;;;;;;;6.24;100.00;101224.86;1453258;89;21399;-78
2023/12/28 05:20:34;;;;;;;10.57;6.70;;;;;;;6.26;100.00;101227.38;1455653;89;21459;-79
2023/12/28 05:23:01;;;;;;;11.43;6.17;;;;;;;6.26;100.00;101228.22;1448236;89;21534;-79
2023/12/28 05:25:28;;;;;;;13.67;6.37;;;;;;;6.25;100.00;101238.84;1440492;89;21393;-78
2023/12/28 05:27:56;;;;;;;11.77;6.50;;;;;;;6.20;100.00;101238.30;1455237;89;21428;-79
2023/12/28 05:30:23;;;;;;;13.20;6.20;;;;;;;6.19;100.00;101245.82;1452532;89;21377;-78
2023/12/28 05:32:50;;;;;;;11.67;7.83;;;;;;;6.15;100.00;101245.62;1453657;89;21378;-78
2023/12/28 05:35:17;;;;;;;12.50;7.70;;;;;;;6.12;100.00;101251.08;1459812;89;21341;-79
2023/12/28 05:37:44;;;;;;;12.97;6.47;;;;;;;6.11;100.00;101246.30;1451812;89;21854;-79
2023/12/28 05:40:12;;;;;;;13.07;6.87;;;;;;;6.10;100.00;101244.16;1449890;89;21291;-78
2023/12/28 05:42:39;;;;;;;19.87;10.57;;;;;;;6.03;100.00;101238.06;1463061;89;21577;-78
2023/12/28 05:45:07;;;;;;;29.97;14.90;;;;;;;6.00;100.00;101236.95;1454983;89;21274;-78
2023/12/28 05:47:34;;;;;;;30.27;17.53;;;;;;;5.99;100.00;101240.53;1463738;89;21333;-78
2023/12/28 05:50:02;;;;;;;33.37;18.13;;;;;;;5.97;100.00;101237.98;1445130;89;21496;-78
2023/12/28 05:52:30;;;;;;;30.77;16.77;;;;;;;5.96;100.00;101238.94;1461301;89;21348;-78
2023/12/28 05:54:57;;;;;;;28.23;15.97;;;;;;;5.96;100.00;101234.16;1457964;89;22221;-78
2023/12/28 05:57:26;;;;;;;24.30;13.80;;;;;;;5.94;100.00;101234.72;1453497;89;21872;-78
2023/12/28 05:59:53;;;;;;;22.17;11.70;;;;;;;5.92;100.00;101233.93;1452952;89;21377;-78
2023/12/28 06:02:20;;;;;;;18.67;10.43;;;;;;;5.88;100.00;101227.56;1465961;89;22548;-78
2023/12/28 06:04:47;;;;;;;18.93;10.57;;;;;;;5.86;100.00;101233.37;1451974;89;21392;-79
2023/12/28 06:07:14;;;;;;;15.73;8.67;;;;;;;5.85;100.00;101229.07;1458196;89;21363;-77
2023/12/28 06:09:42;;;;;;;14.50;8.50;;;;;;;5.84;100.00;101233.96;1457863;89;21444;-77
2023/12/28 06:12:09;;;;;;;18.57;9.50;;;;;;;5.82;100.00;101234.52;1464124;89;21356;-77
2023/12/28 06:14:36;;;;;;;13.50;8.90;;;;;;;5.82;100.00;101233.20;1454217;89;21275;-77
2023/12/28 06:17:05;;;;;;;14.60;8.73;;;;;;;5.82;100.00;101231.89;1463865;89;21510;-77
2023/12/28 06:19:33;;;;;;;19.90;10.40;;;;;;;5.84;100.00;101236.59;1452585;89;21317;-77
2023/12/28 06:22:01;;;;;;;20.83;8.70;;;;;;;5.81;100.00;101238.55;1456676;89;21362;-78
2023/12/28 06:24:28;;;;;;;16.50;10.10;;;;;;;5.78;100.00;101238.30;1463582;89;21303;-76
2023/12/28 06:26:55;;;;;;;22.27;8.47;;;;;;;5.77;100.00;101236.59;1458099;89;21481;-76
2023/12/28 06:29:22;;;;;;;18.40;9.87;;;;;;;5.77;100.00;101241.00;1458849;89;22207;-77
2023/12/28 06:31:49;;;;;;;19.47;11.60;;;;;;;5.74;100.00;101239.41;1464824;89;21319;-77
2023/12/28 06:34:17;;;;;;;19.43;10.67;;;;;;;5.74;100.00;101243.35;1462536;89;21325;-77
2023/12/28 06:36:44;;;;;;;18.93;8.73;;;;;;;5.75;100.00;101248.97;1446106;89;22244;-77
2023/12/28 06:39:11;;;;;;;16.50;9.07;;;;;;;5.77;100.00;101245.78;1455636;89;21297;-77
2023/12/28 06:41:38;;;;;;;16.73;8.87;;;;;;;5.81;100.00;101241.17;1457762;89;21622;-76
2023/12/28 06:44:05;;;;;;;15.53;8.33;;;;;;;5.82;100.00;101246.34;1456514;89;21437;-77
2023/12/28 06:46:32;;;;;;;14.30;7.37;;;;;;;5.85;100.00;101244.83;1459099;89;21437;-77
2023/12/28 06:49:00;;;;;;;15.20;8.77;;;;;;;5.90;100.00;101240.61;1456100;89;22184;-78
2023/12/28 06:51:27;;;;;;;15.40;7.20;;;;;;;5.92;100.00;101241.81;1458800;89;21399;-79
2023/12/28 06:55:00;;;;;;;15.73;7.67;;;;;;;5.91;100.00;101239.66;1421610;89;23231;-76
2023/12/28 06:57:27;;;;;;;12.50;7.60;;;;;;;5.89;100.00;101242.38;1449799;89;21525;-77
2023/12/28 06:59:54;;;;;;;16.57;8.87;;;;;;;5.91;100.00;101236.20;1455653;89;21363;-77
2023/12/28 07:02:21;;;;;;;18.63;8.97;;;;;;;5.89;100.00;101235.80;1455540;89;21421;-77
2023/12/28 07:04:49;;;;;;;22.30;11.80;;;;;;;5.91;100.00;101228.31;1455607;89;21400;-77
2023/12/28 07:07:16;;;;;;;20.40;11.90;;;;;;;5.94;100.00;101230.77;1435654;89;22486;-77
2023/12/28 07:09:43;;;;;;;27.50;15.37;;;;;;;5.97;100.00;101231.89;1452029;89;21533;-77
2023/12/28 07:12:10;;;;;;;26.70;16.03;;;;;;;6.03;100.00;101231.49;1449477;89;21599;-77
2023/12/28 07:14:38;;;;;;;26.37;15.53;;;;;;;6.06;100.00;101231.30;1457924;89;22271;-76
2023/12/28 07:17:05;;;;;;;24.50;15.47;;;;;;;6.07;100.00;101225.09;1459877;89;21369;-77
2023/12/28 07:19:32;;;;;;;32.27;18.87;;;;;;;6.06;100.00;101222.09;1459821;89;21437;-77
2023/12/28 07:21:59;;;;;;;24.97;15.93;;;;;;;6.05;100.00;101224.36;1450176;89;21401;-77
2023/12/28 07:24:26;;;;;;;17.00;10.37;;;;;;;6.04;100.00;101219.58;1455267;89;21444;-77
2023/12/28 07:26:54;;;;;;;22.57;11.90;;;;;;;6.08;100.00;101214.97;1449062;89;22272;-77
2023/12/28 07:29:21;;;;;;;20.13;10.90;;;;;;;6.11;100.00;101212.14;1451141;89;21422;-75
2023/12/28 07:31:48;;;;;;;23.40;11.63;;;;;;;6.13;100.00;101212.89;1450614;89;22443;-76
2023/12/28 07:34:15;;;;;;;19.73;10.00;;;;;;;6.18;100.00;101205.52;1447852;89;21422;-78
2023/12/28 07:36:43;;;;;;;16.93;9.33;;;;;;;6.22;100.00;101213.59;1454222;89;21333;-77
2023/12/28 07:39:10;;;;;;;14.00;9.47;;;;;;;6.25;100.00;101212.55;1457064;89;21547;-75
2023/12/28 07:41:38;;;;;;;19.70;9.47;;;;;;;6.29;100.00;101216.18;1452967;89;21422;-80
2023/12/28 07:44:05;;;;;;;17.37;9.27;;;;;;;6.35;100.00;101221.98;1455676;89;21584;-76
2023/12/28 07:46:33;;;;;;;17.37;10.33;;;;;;;6.40;100.00;101223.37;1451512;89;21407;-77
2023/12/28 07:49:00;;;;;;;16.70;9.87;;;;;;;6.46;100.00;101233.95;1456899;89;21399;-77
2023/12/28 07:51:27;;;;;;;15.07;9.40;;;;;;;6.51;100.00;101228.77;1452465;89;21354;-77
2023/12/28 07:53:54;;;;;;;13.07;7.83;;;;;;;6.57;100.00;101232.77;1456158;89;21540;-75
2023/12/28 07:56:21;;;;;;;16.33;8.60;;;;;;;6.66;100.00;101227.38;1451619;89;21371;-76
2023/12/28 07:58:48;;;;;;;15.53;8.07;;;;;;;6.71;100.00;101228.75;1453100;89;22351;-76
2023/12/28 08:01:15;;;;;;;29.03;9.97;;;;;;;6.79;100.00;101229.56;1451398;89;21422;-75
2023/12/28 08:03:42;;;;;;;16.23;9.20;;;;;;;6.86;100.00;101224.72;1462180;89;21459;-75
2023/12/28 08:06:12;;;;;;;19.57;11.83;;;;;;;6.91;100.00;101221.30;1441994;89;21370;-75
2023/12/28 08:08:39;;;;;;;21.73;13.73;;;;;;;6.95;100.00;101224.92;1451607;89;22699;-76
2023/12/28 08:11:07;;;;;;;20.23;12.97;;;;;;;7.00;100.00;101227.25;1454186;89;21841;-76
2023/12/28 08:13:34;;;;;;;23.23;13.90;;;;;;;7.06;100.00;101228.14;1441848;89;22359;-76
2023/12/28 08:16:02;;;;;;;19.83;12.10;;;;;;;7.12;100.00;101222.45;1454908;89;21583;-77
2023/12/28 08:18:30;;;;;;;22.20;11.00;;;;;;;7.20;100.00;101216.66;1455108;89;21636;-79
2023/12/28 08:20:57;;;;;;;16.40;9.93;;;;;;;7.24;100.00;101222.91;1452863;89;22191;-78
2023/12/28 08:23:24;;;;;;;16.67;8.50;;;;;;;7.28;100.00;101213.03;1456524;89;21452;-77
2023/12/28 08:25:51;;;;;;;13.60;8.67;;;;;;;7.31;100.00;101227.74;1450049;89;21325;-77
2023/12/28 08:28:18;;;;;;;13.80;8.33;;;;;;;7.37;100.00;101231.30;1457815;89;21385;-77
2023/12/28 08:30:45;;;;;;;17.13;9.07;;;;;;;7.39;100.00;101237.27;1445115;89;21377;-77
2023/12/28 08:33:13;;;;;;;16.87;10.43;;;;;;;7.40;100.00;101233.23;1460767;89;21384;-77
2023/12/28 08:35:40;;;;;;;18.20;9.37;;;;;;;7.42;100.00;101239.23;1456273;89;21347;-77
2023/12/28 08:38:07;;;;;;;15.20;8.73;;;;;;;7.44;100.00;101243.06;1453206;89;21363;-77
2023/12/28 08:40:34;;;;;;;11.97;8.07;;;;;;;7.49;100.00;101246.23;1457292;89;21304;-77
2023/12/28 08:43:01;;;;;;;16.07;9.17;;;;;;;7.49;100.00;101246.23;1463555;89;21370;-76
2023/12/28 08:45:28;;;;;;;24.00;11.27;;;;;;;7.58;100.00;101252.16;1462364;89;21507;-77
2023/12/28 08:47:56;;;;;;;17.77;10.87;;;;;;;7.61;100.00;101254.58;1441738;89;21532;-85
2023/12/28 08:50:23;;;;;;;14.57;7.50;;;;;;;7.60;100.00;101247.63;1455443;89;21370;-85
2023/12/28 08:52:51;;;;;;;14.40;8.47;;;;;;;7.62;100.00;101252.33;1450178;89;21578;-84
2023/12/28 08:55:18;;;;;;;13.33;8.43;;;;;;;7.65;100.00;101250.80;1460287;89;22205;-83
2023/12/28 08:57:46;;;;;;;14.03;9.07;;;;;;;7.65;100.00;101249.92;1462099;89;21558;-83
2023/12/28 09:00:18;;;;;;;17.70;8.93;;;;;;;7.66;100.00;101250.31;1443789;89;21355;-83
2023/12/28 09:02:45;;;;;;;16.57;8.50;;;;;;;7.66;100.00;101240.61;1455369;89;21412;-85
2023/12/28 09:05:12;;;;;;;16.90;9.30;;;;;;;7.73;100.00;101245.44;1453408;89;22474;-80
2023/12/28 09:07:44;;;;;;;15.53;8.23;;;;;;;7.81;100.00;101237.83;1459526;89;21363;-83
2023/12/28 09:10:11;;;;;;;11.97;7.57;;;;;;;7.87;100.00;101233.44;1457215;89;21548;-84
2023/12/28 09:12:41;;;;;;;11.03;7.53;;;;;;;7.96;100.00;101234.08;1456512;89;21355;-78
2023/12/28 09:15:09;;;;;;;12.50;7.47;;;;;;;8.01;100.00;101230.64;1448497;89;21371;-78
2023/12/28 09:17:37;;;;;;;16.67;7.73;;;;;;;8.01;100.00;101230.64;1465388;89;21974;-77
2023/12/28 09:20:06;;;;;;;14.03;8.03;;;;;;;8.12;100.00;101231.19;1456562;89;21408;-78
2023/12/28 09:22:33;;;;;;;16.10;8.17;;;;;;;8.20;100.00;101228.84;1460675;89;22471;-78
2023/12/28 09:25:00;;;;;;;14.60;9.17;;;;;;;8.26;100.00;101228.87;1453588;89;21334;-81
2023/12/28 09:27:28;;;;;;;19.77;9.57;;;;;;;8.31;100.00;101226.70;1450020;89;22175;-83
2023/12/28 09:29:55;;;;;;;15.47;8.57;;;;;;;8.36;100.00;101225.41;1437461;89;21407;-81
2023/12/28 09:32:22;;;;;;;19.10;8.80;;;;;;;8.44;100.00;101226.20;1460286;89;21504;-81
2023/12/28 09:34:49;;;;;;;16.43;9.47;;;;;;;8.50;100.00;101224.42;1455777;89;21347;-81
2023/12/28 09:37:16;;;;;;;13.20;7.57;;;;;;;8.56;100.00;101217.36;1453668;89;21326;-80
2023/12/28 09:39:44;;;;;;;13.07;7.07;;;;;;;8.61;100.00;101222.31;1461924;89;21347;-80
2023/12/28 09:42:30;;;;;;;14.33;9.00;;;;;;;8.65;100.00;101211.03;1441537;89;21510;-81
2023/12/28 09:44:57;;;;;;;15.33;8.33;;;;;;;8.70;100.00;101200.98;1452491;89;21443;-83
2023/12/28 09:47:24;;;;;;;22.33;12.83;;;;;;;8.71;100.00;101190.77;1447285;89;21451;-82
2023/12/28 09:49:51;;;;;;;19.17;10.20;;;;;;;8.75;100.00;101194.88;1453418;89;21385;-82
2023/12/28 09:52:19;;;;;;;17.83;10.43;;;;;;;8.79;100.00;101187.08;1451419;89;21414;-82
2023/12/28 09:54:46;;;;;;;12.77;7.13;;;;;;;8.86;100.00;101184.80;1453944;89;21485;-82
2023/12/28 09:57:14;;;;;;;13.70;8.13;;;;;;;8.92;100.00;101179.91;1462353;89;21468;-82
2023/12/28 09:59:41;;;;;;;12.67;6.80;;;;;;;9.02;100.00;101171.61;1458631;89;21415;-83
2023/12/28 10:02:11;;;;;;;14.83;8.10;;;;;;;9.11;100.00;101171.86;1453231;89;22383;-82
2023/12/28 10:04:38;;;;;;;11.00;7.60;;;;;;;9.13;100.00;101162.03;1459163;89;21370;-82
2023/12/28 10:07:06;;;;;;;14.40;8.53;;;;;;;9.18;100.00;101146.67;1457009;89;21541;-82
2023/12/28 10:09:33;;;;;;;14.87;9.13;;;;;;;9.21;100.00;101147.75;1453058;89;21428;-82
2023/12/28 10:12:00;;;;;;;16.63;10.10;;;;;;;9.30;100.00;101143.05;1446713;89;21429;-80
2023/12/28 10:14:28;;;;;;;19.23;8.70;;;;;;;9.39;98.29;101135.70;1455258;89;21925;-83
2023/12/28 10:16:57;;;;;;;14.80;9.17;;;;;;;9.85;95.05;101128.02;1451700;89;21362;-82
2023/12/28 10:19:24;;;;;;;15.93;9.50;;;;;;;10.26;95.70;101135.64;1458901;89;21399;-82
2023/12/28 10:21:52;;;;;;;13.77;7.70;;;;;;;10.86;89.85;101127.12;1456013;89;21319;-83
2023/12/28 10:24:21;;;;;;;12.27;8.30;;;;;;;11.26;80.56;101122.67;1456816;89;21332;-81
2023/12/28 10:26:49;;;;;;;15.80;8.50;;;;;;;11.70;75.94;101121.84;1456138;89;21362;-82
2023/12/28 10:29:18;;;;;;;;;;;;;;;12.17;78.49;101122.04;1464373;89;21327;-84
2023/12/28 10:31:50;;;;;;;14.03;7.93;;;;;;;12.67;75.89;101117.48;1453837;89;20387;-83
2023/12/28 10:34:15;;;;;;;11.17;7.97;;;;;;;12.93;73.31;101110.52;1455585;89;21619;-83
2023/12/28 10:36:42;;;;;;;11.37;7.30;;;;;;;13.16;71.02;101099.02;1469677;89;21511;-83
2023/12/28 10:39:13;;;;;;;10.90;7.30;;;;;;;13.24;66.78;101095.13;1452058;89;21377;-82
2023/12/28 10:41:43;;;;;;;;;;;;;;;13.46;69.68;101093.89;1443665;89;22271;-84
2023/12/28 10:44:13;;;;;;;13.43;7.97;;;;;;;13.61;65.15;101089.38;1454168;89;20402;-83
2023/12/28 10:46:43;;;;;;;11.93;7.40;;;;;;;13.67;65.04;101084.81;1469129;89;21377;-84
2023/12/28 10:49:12;;;;;;;13.43;8.73;;;;;;;13.83;66.08;101084.94;1441134;89;21407;-84
2023/12/28 10:51:48;;;;;;;13.05;9.33;;;;;;;13.87;64.17;101083.67;1456849;89;22479;-84
2023/12/28 10:54:24;;;;;;;11.57;7.97;;;;;;;13.95;64.54;101079.75;1462799;89;21377;-84
2023/12/28 10:56:58;;;;;;;11.57;8.20;;;;;;;14.05;64.13;101082.81;1454898;89;21414;-84
2023/12/28 10:59:46;;;;;;;14.83;9.93;;;;;;;14.06;62.73;101079.15;1445908;89;22412;-85
2023/12/28 11:02:21;;;;;;;14.87;9.83;;;;;;;13.98;62.31;101074.12;1448022;89;22405;-83
2023/12/28 11:04:50;;;;;;;15.33;9.40;;;;;;;14.12;63.18;101074.53;1456482;89;21436;-83
2023/12/28 11:07:20;;;;;;;14.68;9.48;;;;;;;14.28;62.50;101068.00;1453929;89;21511;-84
2023/12/28 11:09:48;;;;;;;12.85;8.73;;;;;;;14.32;61.99;101057.37;1443742;89;21503;-84
2023/12/28 11:12:18;;;;;;;13.90;8.30;;;;;;;14.40;62.05;101045.44;1444028;89;21385;-84
2023/12/28 11:14:48;;;;;;;12.43;9.53;;;;;;;14.46;60.08;101043.98;1459219;89;21437;-84
2023/12/28 11:17:16;;;;;;;14.47;10.00;;;;;;;14.52;60.86;101040.70;1455826;89;21377;-84
2023/12/28 11:19:45;;;;;;;11.17;8.77;;;;;;;14.51;60.22;101038.19;1456430;89;22613;-84
2023/12/28 11:22:13;;;;;;;11.40;7.90;;;;;;;14.44;59.11;101040.63;1457272;89;21392;-84